sensor_id;sensor_type;location;lat;lon;timestamp;temperature;humidity
1830;DHT22;914;48.118;11.600;2023-09-18T00:00:23;21.30;99.90
1830;DHT22;914;48.118;11.600;2023-09-18T00:02:49;21.40;99.90
1830;DHT22;914;48.118;11.600;2023-09-18T00:05:14;21.30;99.90
1830;DHT22;914;48.118;11.600;2023-09-18T00:07:44;21.30;99.90
1830;DHT22;914;48.118;11.600;2023-09-18T00:10:13;21.20;99.90
1830;DHT22;914;48.118;11.600;2023-09-18T00:12:39;21.20;99.90
1830;DHT22;914;48.118;11.600;2023-09-18T00:15:06;21.20;99.90
1830;DHT22;914;48.118;11.600;2023-09-18T00:17:36;21.10;99.90
1830;DHT22;914;48.118;11.600;2023-09-18T00:20:02;21.00;99.90
1830;DHT22;914;48.118;11.600;2023-09-18T00:22:32;21.00;99.90
1830;DHT22;914;48.118;11.600;2023-09-18T00:24:57;21.00;99.90
1830;DHT22;914;48.118;11.600;2023-09-18T00:27:23;21.00;99.90
1830;DHT22;914;48.118;11.600;2023-09-18T00:29:49;21.00;99.90
1830;DHT22;914;48.118;11.600;2023-09-18T00:32:14;21.00;99.90
1830;DHT22;914;48.118;11.600;2023-09-18T00:34:40;21.00;99.90
1830;DHT22;914;48.118;11.600;2023-09-18T00:37:05;21.00;99.90
1830;DHT22;914;48.118;11.600;2023-09-18T00:39:31;21.00;99.90
1830;DHT22;914;48.118;11.600;2023-09-18T00:41:57;20.90;99.90
1830;DHT22;914;48.118;11.600;2023-09-18T00:44:23;20.90;99.90
1830;DHT22;914;48.118;11.600;2023-09-18T00:46:49;20.90;99.90
1830;DHT22;914;48.118;11.600;2023-09-18T00:49:17;20.90;99.90
1830;DHT22;914;48.118;11.600;2023-09-18T00:51:44;20.80;99.90
1830;DHT22;914;48.118;11.600;2023-09-18T00:54:11;20.80;99.90
1830;DHT22;914;48.118;11.600;2023-09-18T00:56:36;20.80;99.90
1830;DHT22;914;48.118;11.600;2023-09-18T00:59:02;20.80;99.90
1830;DHT22;914;48.118;11.600;2023-09-18T01:01:28;20.90;99.90
1830;DHT22;914;48.118;11.600;2023-09-18T01:03:56;20.90;99.90
1830;DHT22;914;48.118;11.600;2023-09-18T01:06:25;20.90;99.90
1830;DHT22;914;48.118;11.600;2023-09-18T01:08:53;20.90;99.90
1830;DHT22;914;48.118;11.600;2023-09-18T01:11:30;20.90;99.90
1830;DHT22;914;48.118;11.600;2023-09-18T01:14:19;20.80;99.90
1830;DHT22;914;48.118;11.600;2023-09-18T01:17:06;20.80;99.90
1830;DHT22;914;48.118;11.600;2023-09-18T01:19:39;20.80;99.90
1830;DHT22;914;48.118;11.600;2023-09-18T01:22:06;20.70;99.90
1830;DHT22;914;48.118;11.600;2023-09-18T01:24:37;20.80;99.90
1830;DHT22;914;48.118;11.600;2023-09-18T01:27:03;20.70;99.90
1830;DHT22;914;48.118;11.600;2023-09-18T01:29:32;20.70;99.90
1830;DHT22;914;48.118;11.600;2023-09-18T01:31:58;20.70;99.90
1830;DHT22;914;48.118;11.600;2023-09-18T01:34:35;20.70;99.90
1830;DHT22;914;48.118;11.600;2023-09-18T01:37:03;20.80;99.90
1830;DHT22;914;48.118;11.600;2023-09-18T01:39:31;20.90;99.80
1830;DHT22;914;48.118;11.600;2023-09-18T01:41:59;20.90;99.90
1830;DHT22;914;48.118;11.600;2023-09-18T01:44:25;20.90;99.80
1830;DHT22;914;48.118;11.600;2023-09-18T01:46:52;20.90;99.70
1830;DHT22;914;48.118;11.600;2023-09-18T01:49:34;20.90;99.50
1830;DHT22;914;48.118;11.600;2023-09-18T01:52:01;20.90;99.70
1830;DHT22;914;48.118;11.600;2023-09-18T01:54:27;20.90;99.60
1830;DHT22;914;48.118;11.600;2023-09-18T01:56:53;20.90;99.50
1830;DHT22;914;48.118;11.600;2023-09-18T01:59:19;20.80;99.50
1830;DHT22;914;48.118;11.600;2023-09-18T02:01:45;20.70;99.50
1830;DHT22;914;48.118;11.600;2023-09-18T02:04:11;20.70;99.70
1830;DHT22;914;48.118;11.600;2023-09-18T02:06:36;20.60;99.70
1830;DHT22;914;48.118;11.600;2023-09-18T02:09:02;20.50;99.80
1830;DHT22;914;48.118;11.600;2023-09-18T02:11:29;20.50;99.90
1830;DHT22;914;48.118;11.600;2023-09-18T02:13:55;20.50;99.90
1830;DHT22;914;48.118;11.600;2023-09-18T02:16:22;20.50;99.70
1830;DHT22;914;48.118;11.600;2023-09-18T02:18:50;20.60;99.70
1830;DHT22;914;48.118;11.600;2023-09-18T02:21:20;20.70;99.60
1830;DHT22;914;48.118;11.600;2023-09-18T02:23:48;20.60;99.40
1830;DHT22;914;48.118;11.600;2023-09-18T02:26:14;20.60;99.50
1830;DHT22;914;48.118;11.600;2023-09-18T02:28:39;20.60;99.60
1830;DHT22;914;48.118;11.600;2023-09-18T02:31:05;20.60;99.20
1830;DHT22;914;48.118;11.600;2023-09-18T02:33:31;20.70;99.30
1830;DHT22;914;48.118;11.600;2023-09-18T02:35:56;20.60;99.00
1830;DHT22;914;48.118;11.600;2023-09-18T02:38:22;20.50;99.20
1830;DHT22;914;48.118;11.600;2023-09-18T02:40:48;20.50;99.30
1830;DHT22;914;48.118;11.600;2023-09-18T02:43:14;20.50;99.40
1830;DHT22;914;48.118;11.600;2023-09-18T02:45:40;20.50;99.20
1830;DHT22;914;48.118;11.600;2023-09-18T02:48:06;20.50;99.20
1830;DHT22;914;48.118;11.600;2023-09-18T02:50:31;20.40;99.10
1830;DHT22;914;48.118;11.600;2023-09-18T02:52:57;20.30;99.30
1830;DHT22;914;48.118;11.600;2023-09-18T02:55:22;20.40;99.30
1830;DHT22;914;48.118;11.600;2023-09-18T02:57:48;20.30;99.20
1830;DHT22;914;48.118;11.600;2023-09-18T03:00:14;20.30;99.30
1830;DHT22;914;48.118;11.600;2023-09-18T03:02:39;20.20;99.40
1830;DHT22;914;48.118;11.600;2023-09-18T03:05:05;20.20;99.60
1830;DHT22;914;48.118;11.600;2023-09-18T03:07:31;20.30;99.50
1830;DHT22;914;48.118;11.600;2023-09-18T03:09:56;20.30;99.30
1830;DHT22;914;48.118;11.600;2023-09-18T03:12:22;20.30;99.20
1830;DHT22;914;48.118;11.600;2023-09-18T03:14:48;20.40;99.10
1830;DHT22;914;48.118;11.600;2023-09-18T03:17:13;20.40;99.10
1830;DHT22;914;48.118;11.600;2023-09-18T03:19:39;20.60;98.50
1830;DHT22;914;48.118;11.600;2023-09-18T03:22:05;20.70;98.20
1830;DHT22;914;48.118;11.600;2023-09-18T03:24:30;20.60;97.90
1830;DHT22;914;48.118;11.600;2023-09-18T03:26:56;20.50;98.10
1830;DHT22;914;48.118;11.600;2023-09-18T03:29:22;20.40;98.40
1830;DHT22;914;48.118;11.600;2023-09-18T03:31:47;20.30;98.40
1830;DHT22;914;48.118;11.600;2023-09-18T03:34:13;20.20;98.60
1830;DHT22;914;48.118;11.600;2023-09-18T03:36:38;20.20;98.60
1830;DHT22;914;48.118;11.600;2023-09-18T03:39:05;20.30;98.60
1830;DHT22;914;48.118;11.600;2023-09-18T03:41:30;20.50;98.40
1830;DHT22;914;48.118;11.600;2023-09-18T03:44:00;20.60;98.00
1830;DHT22;914;48.118;11.600;2023-09-18T03:46:26;20.50;98.10
1830;DHT22;914;48.118;11.600;2023-09-18T03:48:52;20.50;98.10
1830;DHT22;914;48.118;11.600;2023-09-18T03:51:17;20.50;97.80
1830;DHT22;914;48.118;11.600;2023-09-18T03:53:44;20.40;97.90
1830;DHT22;914;48.118;11.600;2023-09-18T03:56:10;20.40;98.00
1830;DHT22;914;48.118;11.600;2023-09-18T03:58:36;20.30;98.00
1830;DHT22;914;48.118;11.600;2023-09-18T04:01:01;20.30;98.20
1830;DHT22;914;48.118;11.600;2023-09-18T04:03:27;20.20;98.30
1830;DHT22;914;48.118;11.600;2023-09-18T04:05:53;20.20;98.20
1830;DHT22;914;48.118;11.600;2023-09-18T04:08:18;20.10;98.20
1830;DHT22;914;48.118;11.600;2023-09-18T04:10:44;20.10;98.20
1830;DHT22;914;48.118;11.600;2023-09-18T04:13:10;20.20;98.20
1830;DHT22;914;48.118;11.600;2023-09-18T04:15:37;20.30;98.00
1830;DHT22;914;48.118;11.600;2023-09-18T04:18:06;20.30;97.80
1830;DHT22;914;48.118;11.600;2023-09-18T04:20:32;20.30;97.50
1830;DHT22;914;48.118;11.600;2023-09-18T04:23:22;20.30;97.60
1830;DHT22;914;48.118;11.600;2023-09-18T04:25:48;20.20;97.70
1830;DHT22;914;48.118;11.600;2023-09-18T04:28:17;20.10;97.90
1830;DHT22;914;48.118;11.600;2023-09-18T04:30:44;20.10;98.00
1830;DHT22;914;48.118;11.600;2023-09-18T04:33:10;20.10;98.20
1830;DHT22;914;48.118;11.600;2023-09-18T04:35:37;20.10;98.10
1830;DHT22;914;48.118;11.600;2023-09-18T04:38:06;20.20;97.90
1830;DHT22;914;48.118;11.600;2023-09-18T04:40:31;20.20;97.90
1830;DHT22;914;48.118;11.600;2023-09-18T04:42:58;20.20;97.90
1830;DHT22;914;48.118;11.600;2023-09-18T04:45:24;20.10;97.80
1830;DHT22;914;48.118;11.600;2023-09-18T04:47:51;20.10;97.90
1830;DHT22;914;48.118;11.600;2023-09-18T04:50:16;20.10;97.80
1830;DHT22;914;48.118;11.600;2023-09-18T04:52:42;20.10;97.80
1830;DHT22;914;48.118;11.600;2023-09-18T04:55:08;20.10;97.80
1830;DHT22;914;48.118;11.600;2023-09-18T04:57:34;19.90;98.00
1830;DHT22;914;48.118;11.600;2023-09-18T05:00:00;19.80;98.20
1830;DHT22;914;48.118;11.600;2023-09-18T05:02:26;19.90;98.00
1830;DHT22;914;48.118;11.600;2023-09-18T05:04:52;19.80;98.20
1830;DHT22;914;48.118;11.600;2023-09-18T05:07:17;20.00;98.00
1830;DHT22;914;48.118;11.600;2023-09-18T05:09:43;20.00;97.90
1830;DHT22;914;48.118;11.600;2023-09-18T05:12:09;20.00;97.80
1830;DHT22;914;48.118;11.600;2023-09-18T05:14:43;20.20;97.80
1830;DHT22;914;48.118;11.600;2023-09-18T05:17:15;20.30;97.20
1830;DHT22;914;48.118;11.600;2023-09-18T05:19:41;20.20;97.50
1830;DHT22;914;48.118;11.600;2023-09-18T05:22:10;20.20;97.40
1830;DHT22;914;48.118;11.600;2023-09-18T05:24:38;20.20;97.40
1830;DHT22;914;48.118;11.600;2023-09-18T05:27:04;20.20;97.50
1830;DHT22;914;48.118;11.600;2023-09-18T05:29:31;20.20;97.40
1830;DHT22;914;48.118;11.600;2023-09-18T05:31:57;20.30;97.40
1830;DHT22;914;48.118;11.600;2023-09-18T05:34:22;20.40;97.40
1830;DHT22;914;48.118;11.600;2023-09-18T05:36:48;20.40;97.20
1830;DHT22;914;48.118;11.600;2023-09-18T05:39:14;20.50;97.20
1830;DHT22;914;48.118;11.600;2023-09-18T05:41:39;20.50;97.20
1830;DHT22;914;48.118;11.600;2023-09-18T05:44:05;20.50;97.10
1830;DHT22;914;48.118;11.600;2023-09-18T05:46:34;20.20;97.20
1830;DHT22;914;48.118;11.600;2023-09-18T05:49:00;20.30;97.70
1830;DHT22;914;48.118;11.600;2023-09-18T05:51:26;20.40;97.50
1830;DHT22;914;48.118;11.600;2023-09-18T05:53:53;20.50;97.70
1830;DHT22;914;48.118;11.600;2023-09-18T05:56:18;20.70;97.40
1830;DHT22;914;48.118;11.600;2023-09-18T05:58:44;20.60;97.50
1830;DHT22;914;48.118;11.600;2023-09-18T06:01:10;20.80;97.70
1830;DHT22;914;48.118;11.600;2023-09-18T06:03:35;20.90;97.60
1830;DHT22;914;48.118;11.600;2023-09-18T06:06:05;21.10;97.30
1830;DHT22;914;48.118;11.600;2023-09-18T06:08:31;21.30;97.10
1830;DHT22;914;48.118;11.600;2023-09-18T06:10:59;21.40;96.60
1830;DHT22;914;48.118;11.600;2023-09-18T06:13:25;21.50;96.40
1830;DHT22;914;48.118;11.600;2023-09-18T06:15:54;21.70;96.60
1830;DHT22;914;48.118;11.600;2023-09-18T06:18:21;21.80;96.40
1830;DHT22;914;48.118;11.600;2023-09-18T06:20:47;21.80;96.90
1830;DHT22;914;48.118;11.600;2023-09-18T06:23:13;21.90;96.80
1830;DHT22;914;48.118;11.600;2023-09-18T06:25:39;22.10;96.70
1830;DHT22;914;48.118;11.600;2023-09-18T06:28:05;22.20;96.40
1830;DHT22;914;48.118;11.600;2023-09-18T06:30:31;22.40;96.20
1830;DHT22;914;48.118;11.600;2023-09-18T06:32:59;22.50;96.00
1830;DHT22;914;48.118;11.600;2023-09-18T06:35:24;22.60;96.00
1830;DHT22;914;48.118;11.600;2023-09-18T06:37:50;22.70;96.00
1830;DHT22;914;48.118;11.600;2023-09-18T06:40:16;22.80;95.80
1830;DHT22;914;48.118;11.600;2023-09-18T06:42:42;22.90;95.30
1830;DHT22;914;48.118;11.600;2023-09-18T06:45:08;22.90;95.60
1830;DHT22;914;48.118;11.600;2023-09-18T06:47:34;22.90;95.10
1830;DHT22;914;48.118;11.600;2023-09-18T06:49:59;22.90;95.10
1830;DHT22;914;48.118;11.600;2023-09-18T06:52:26;22.90;95.20
1830;DHT22;914;48.118;11.600;2023-09-18T06:54:53;22.80;95.10
1830;DHT22;914;48.118;11.600;2023-09-18T06:57:19;22.80;95.50
1830;DHT22;914;48.118;11.600;2023-09-18T06:59:47;22.80;95.70
1830;DHT22;914;48.118;11.600;2023-09-18T07:02:12;22.70;95.60
1830;DHT22;914;48.118;11.600;2023-09-18T07:04:40;22.60;95.90
1830;DHT22;914;48.118;11.600;2023-09-18T07:07:11;22.50;96.30
1830;DHT22;914;48.118;11.600;2023-09-18T07:09:38;22.50;96.80
1830;DHT22;914;48.118;11.600;2023-09-18T07:12:04;22.50;97.30
1830;DHT22;914;48.118;11.600;2023-09-18T07:14:29;22.70;97.00
1830;DHT22;914;48.118;11.600;2023-09-18T07:16:56;22.70;97.30
1830;DHT22;914;48.118;11.600;2023-09-18T07:19:22;22.90;97.30
1830;DHT22;914;48.118;11.600;2023-09-18T07:21:47;23.30;97.00
1830;DHT22;914;48.118;11.600;2023-09-18T07:24:13;23.50;96.60
1830;DHT22;914;48.118;11.600;2023-09-18T07:26:47;23.80;96.30
1830;DHT22;914;48.118;11.600;2023-09-18T07:29:14;23.80;95.90
1830;DHT22;914;48.118;11.600;2023-09-18T07:31:44;24.20;96.20
1830;DHT22;914;48.118;11.600;2023-09-18T07:34:10;24.20;96.40
1830;DHT22;914;48.118;11.600;2023-09-18T07:36:36;24.40;95.70
1830;DHT22;914;48.118;11.600;2023-09-18T07:39:02;24.50;95.70
1830;DHT22;914;48.118;11.600;2023-09-18T07:41:30;24.10;96.60
1830;DHT22;914;48.118;11.600;2023-09-18T07:43:56;24.10;96.40
1830;DHT22;914;48.118;11.600;2023-09-18T07:46:23;24.40;95.50
1830;DHT22;914;48.118;11.600;2023-09-18T07:48:49;24.30;95.40
1830;DHT22;914;48.118;11.600;2023-09-18T07:51:15;24.30;95.50
1830;DHT22;914;48.118;11.600;2023-09-18T07:53:42;24.30;95.30
1830;DHT22;914;48.118;11.600;2023-09-18T07:56:08;24.30;95.70
1830;DHT22;914;48.118;11.600;2023-09-18T07:58:34;24.40;95.90
1830;DHT22;914;48.118;11.600;2023-09-18T08:01:03;24.40;95.60
1830;DHT22;914;48.118;11.600;2023-09-18T08:03:32;24.10;96.00
1830;DHT22;914;48.118;11.600;2023-09-18T08:05:58;24.10;96.20
1830;DHT22;914;48.118;11.600;2023-09-18T08:08:23;24.10;96.50
1830;DHT22;914;48.118;11.600;2023-09-18T08:10:51;24.40;96.80
1830;DHT22;914;48.118;11.600;2023-09-18T08:13:17;24.80;96.40
1830;DHT22;914;48.118;11.600;2023-09-18T08:15:43;25.00;96.40
1830;DHT22;914;48.118;11.600;2023-09-18T08:18:09;25.10;96.40
1830;DHT22;914;48.118;11.600;2023-09-18T08:20:39;25.20;96.50
1830;DHT22;914;48.118;11.600;2023-09-18T08:23:05;24.90;96.80
1830;DHT22;914;48.118;11.600;2023-09-18T08:25:31;24.90;96.40
1830;DHT22;914;48.118;11.600;2023-09-18T08:27:57;24.90;96.40
1830;DHT22;914;48.118;11.600;2023-09-18T08:30:23;25.00;96.70
1830;DHT22;914;48.118;11.600;2023-09-18T08:32:51;25.20;96.40
1830;DHT22;914;48.118;11.600;2023-09-18T08:35:17;25.10;96.50
1830;DHT22;914;48.118;11.600;2023-09-18T08:37:43;25.00;96.70
1830;DHT22;914;48.118;11.600;2023-09-18T08:40:13;25.00;96.60
1830;DHT22;914;48.118;11.600;2023-09-18T08:42:44;24.80;97.10
1830;DHT22;914;48.118;11.600;2023-09-18T08:45:12;24.60;97.10
1830;DHT22;914;48.118;11.600;2023-09-18T08:47:40;24.90;97.00
1830;DHT22;914;48.118;11.600;2023-09-18T08:50:08;24.70;97.00
1830;DHT22;914;48.118;11.600;2023-09-18T08:52:35;24.60;97.50
1830;DHT22;914;48.118;11.600;2023-09-18T08:55:02;24.60;97.70
1830;DHT22;914;48.118;11.600;2023-09-18T08:57:29;24.50;97.60
1830;DHT22;914;48.118;11.600;2023-09-18T08:59:56;24.50;97.50
1830;DHT22;914;48.118;11.600;2023-09-18T09:02:22;24.50;97.40
1830;DHT22;914;48.118;11.600;2023-09-18T09:04:48;24.50;97.70
1830;DHT22;914;48.118;11.600;2023-09-18T09:07:14;24.80;97.40
1830;DHT22;914;48.118;11.600;2023-09-18T09:09:40;24.50;97.40
1830;DHT22;914;48.118;11.600;2023-09-18T09:12:07;24.40;97.60
1830;DHT22;914;48.118;11.600;2023-09-18T09:14:33;24.70;97.20
1830;DHT22;914;48.118;11.600;2023-09-18T09:16:59;24.50;97.20
1830;DHT22;914;48.118;11.600;2023-09-18T09:19:30;24.40;97.00
1830;DHT22;914;48.118;11.600;2023-09-18T09:21:56;24.40;97.00
1830;DHT22;914;48.118;11.600;2023-09-18T09:24:37;24.20;97.20
1830;DHT22;914;48.118;11.600;2023-09-18T09:27:03;24.10;97.20
1830;DHT22;914;48.118;11.600;2023-09-18T09:29:29;24.00;97.70
1830;DHT22;914;48.118;11.600;2023-09-18T09:31:55;24.30;97.60
1830;DHT22;914;48.118;11.600;2023-09-18T09:34:25;24.60;97.20
1830;DHT22;914;48.118;11.600;2023-09-18T09:36:53;24.60;97.00
1830;DHT22;914;48.118;11.600;2023-09-18T09:39:19;24.80;97.10
1830;DHT22;914;48.118;11.600;2023-09-18T09:41:47;25.00;97.50
1830;DHT22;914;48.118;11.600;2023-09-18T09:44:14;25.10;96.50
1830;DHT22;914;48.118;11.600;2023-09-18T09:46:47;25.50;96.30
1830;DHT22;914;48.118;11.600;2023-09-18T09:49:13;25.40;96.10
1830;DHT22;914;48.118;11.600;2023-09-18T09:51:41;25.30;96.00
1830;DHT22;914;48.118;11.600;2023-09-18T09:54:07;25.70;95.50
1830;DHT22;914;48.118;11.600;2023-09-18T09:56:45;25.90;95.10
1830;DHT22;914;48.118;11.600;2023-09-18T09:59:12;25.60;95.00
1830;DHT22;914;48.118;11.600;2023-09-18T10:01:38;25.40;95.60
1830;DHT22;914;48.118;11.600;2023-09-18T10:04:14;25.60;96.00
1830;DHT22;914;48.118;11.600;2023-09-18T10:06:56;25.50;95.40
1830;DHT22;914;48.118;11.600;2023-09-18T10:09:22;25.20;95.80
1830;DHT22;914;48.118;11.600;2023-09-18T10:11:52;25.40;95.70
1830;DHT22;914;48.118;11.600;2023-09-18T10:14:20;25.80;95.30
1830;DHT22;914;48.118;11.600;2023-09-18T10:16:53;25.70;95.00
1830;DHT22;914;48.118;11.600;2023-09-18T10:19:49;25.50;95.60
1830;DHT22;914;48.118;11.600;2023-09-18T10:22:30;25.20;95.70
1830;DHT22;914;48.118;11.600;2023-09-18T10:25:23;25.10;96.20
1830;DHT22;914;48.118;11.600;2023-09-18T10:27:51;25.10;97.30
1830;DHT22;914;48.118;11.600;2023-09-18T10:30:19;25.00;96.30
1830;DHT22;914;48.118;11.600;2023-09-18T10:32:45;25.10;96.80
1830;DHT22;914;48.118;11.600;2023-09-18T10:35:11;25.40;96.60
1830;DHT22;914;48.118;11.600;2023-09-18T10:37:41;25.70;95.90
1830;DHT22;914;48.118;11.600;2023-09-18T10:40:09;25.60;95.70
1830;DHT22;914;48.118;11.600;2023-09-18T10:42:38;25.60;95.50
1830;DHT22;914;48.118;11.600;2023-09-18T10:45:04;25.50;96.30
1830;DHT22;914;48.118;11.600;2023-09-18T10:47:31;25.50;96.10
1830;DHT22;914;48.118;11.600;2023-09-18T10:49:57;25.40;96.10
1830;DHT22;914;48.118;11.600;2023-09-18T10:52:23;25.40;95.30
1830;DHT22;914;48.118;11.600;2023-09-18T10:54:49;25.40;95.20
1830;DHT22;914;48.118;11.600;2023-09-18T10:57:14;25.60;95.80
1830;DHT22;914;48.118;11.600;2023-09-18T10:59:44;25.70;95.80
1830;DHT22;914;48.118;11.600;2023-09-18T11:02:14;26.00;94.90
1830;DHT22;914;48.118;11.600;2023-09-18T11:04:42;25.60;95.50
1830;DHT22;914;48.118;11.600;2023-09-18T11:07:08;25.40;95.50
1830;DHT22;914;48.118;11.600;2023-09-18T11:09:43;25.60;95.00
1830;DHT22;914;48.118;11.600;2023-09-18T11:12:10;25.50;95.60
1830;DHT22;914;48.118;11.600;2023-09-18T11:17:43;25.90;94.70
1830;DHT22;914;48.118;11.600;2023-09-18T11:20:17;26.00;95.00
1830;DHT22;914;48.118;11.600;2023-09-18T11:22:49;25.70;95.60
1830;DHT22;914;48.118;11.600;2023-09-18T11:28:16;25.60;95.20
1830;DHT22;914;48.118;11.600;2023-09-18T11:30:57;25.60;95.10
1830;DHT22;914;48.118;11.600;2023-09-18T11:33:40;25.60;94.60
1830;DHT22;914;48.118;11.600;2023-09-18T11:36:11;25.40;94.80
1830;DHT22;914;48.118;11.600;2023-09-18T11:39:11;25.20;95.00
1830;DHT22;914;48.118;11.600;2023-09-18T11:41:38;24.90;95.40
1830;DHT22;914;48.118;11.600;2023-09-18T11:46:40;24.70;96.00
1830;DHT22;914;48.118;11.600;2023-09-18T11:49:11;24.50;96.30
1830;DHT22;914;48.118;11.600;2023-09-18T11:51:37;24.30;95.80
1830;DHT22;914;48.118;11.600;2023-09-18T11:54:05;24.20;96.00
1830;DHT22;914;48.118;11.600;2023-09-18T11:56:33;24.30;95.90
1830;DHT22;914;48.118;11.600;2023-09-18T11:58:58;24.20;96.00
1830;DHT22;914;48.118;11.600;2023-09-18T12:01:25;23.90;96.90
1830;DHT22;914;48.118;11.600;2023-09-18T12:04:00;23.60;97.20
1830;DHT22;914;48.118;11.600;2023-09-18T12:06:26;23.60;97.30
1830;DHT22;914;48.118;11.600;2023-09-18T12:08:52;23.40;97.60
1830;DHT22;914;48.118;11.600;2023-09-18T12:11:19;23.10;97.80
1830;DHT22;914;48.118;11.600;2023-09-18T12:13:52;23.30;97.70
1830;DHT22;914;48.118;11.600;2023-09-18T12:16:18;23.10;98.20
1830;DHT22;914;48.118;11.600;2023-09-18T12:18:48;23.00;98.20
1830;DHT22;914;48.118;11.600;2023-09-18T12:21:15;23.10;98.00
1830;DHT22;914;48.118;11.600;2023-09-18T12:23:44;22.90;98.50
1830;DHT22;914;48.118;11.600;2023-09-18T12:26:14;22.90;98.90
1830;DHT22;914;48.118;11.600;2023-09-18T12:28:43;22.70;98.60
1830;DHT22;914;48.118;11.600;2023-09-18T12:31:13;22.60;98.40
1830;DHT22;914;48.118;11.600;2023-09-18T12:33:40;22.60;99.20
1830;DHT22;914;48.118;11.600;2023-09-18T12:36:07;22.40;99.30
1830;DHT22;914;48.118;11.600;2023-09-18T12:38:34;22.30;99.90
1830;DHT22;914;48.118;11.600;2023-09-18T12:41:00;22.40;99.90
1830;DHT22;914;48.118;11.600;2023-09-18T12:43:40;22.10;99.90
1830;DHT22;914;48.118;11.600;2023-09-18T12:46:08;22.10;99.90
1830;DHT22;914;48.118;11.600;2023-09-18T12:48:38;22.00;99.90
1830;DHT22;914;48.118;11.600;2023-09-18T12:51:08;22.00;99.90
1830;DHT22;914;48.118;11.600;2023-09-18T12:53:33;21.90;99.90
1830;DHT22;914;48.118;11.600;2023-09-18T12:56:12;21.90;99.90
1830;DHT22;914;48.118;11.600;2023-09-18T12:58:41;22.00;99.90
1830;DHT22;914;48.118;11.600;2023-09-18T13:01:08;22.00;99.90
1830;DHT22;914;48.118;11.600;2023-09-18T13:03:43;21.70;99.90
1830;DHT22;914;48.118;11.600;2023-09-18T13:06:10;21.70;99.90
1830;DHT22;914;48.118;11.600;2023-09-18T13:08:37;21.60;99.90
1830;DHT22;914;48.118;11.600;2023-09-18T13:11:03;21.20;99.90
1830;DHT22;914;48.118;11.600;2023-09-18T13:13:29;21.20;99.90
1830;DHT22;914;48.118;11.600;2023-09-18T13:15:58;20.90;99.90
1830;DHT22;914;48.118;11.600;2023-09-18T13:18:25;20.70;99.90
1830;DHT22;914;48.118;11.600;2023-09-18T13:20:52;20.60;99.90
1830;DHT22;914;48.118;11.600;2023-09-18T13:23:18;20.40;99.90
1830;DHT22;914;48.118;11.600;2023-09-18T13:25:44;20.50;99.90
1830;DHT22;914;48.118;11.600;2023-09-18T13:28:12;20.70;99.90
1830;DHT22;914;48.118;11.600;2023-09-18T13:30:41;20.70;99.90
1830;DHT22;914;48.118;11.600;2023-09-18T13:33:11;20.60;99.90
1830;DHT22;914;48.118;11.600;2023-09-18T13:35:42;20.50;99.90
1830;DHT22;914;48.118;11.600;2023-09-18T13:38:08;20.60;99.90
1830;DHT22;914;48.118;11.600;2023-09-18T13:40:36;20.70;99.90
1830;DHT22;914;48.118;11.600;2023-09-18T13:43:03;20.70;99.90
1830;DHT22;914;48.118;11.600;2023-09-18T13:45:30;20.80;99.90
1830;DHT22;914;48.118;11.600;2023-09-18T13:47:56;20.80;99.90
1830;DHT22;914;48.118;11.600;2023-09-18T13:50:22;21.00;99.90
1830;DHT22;914;48.118;11.600;2023-09-18T13:52:47;21.10;99.90
1830;DHT22;914;48.118;11.600;2023-09-18T13:55:13;21.20;99.90
1830;DHT22;914;48.118;11.600;2023-09-18T13:57:39;21.10;99.90
1830;DHT22;914;48.118;11.600;2023-09-18T14:00:06;21.20;99.90
1830;DHT22;914;48.118;11.600;2023-09-18T14:02:38;21.30;99.90
1830;DHT22;914;48.118;11.600;2023-09-18T14:05:05;21.50;99.90
1830;DHT22;914;48.118;11.600;2023-09-18T14:07:31;21.70;99.90
1830;DHT22;914;48.118;11.600;2023-09-18T14:09:56;22.00;99.90
1830;DHT22;914;48.118;11.600;2023-09-18T14:12:24;22.20;99.90
1830;DHT22;914;48.118;11.600;2023-09-18T14:14:50;22.30;99.90
1830;DHT22;914;48.118;11.600;2023-09-18T14:17:16;22.30;99.90
1830;DHT22;914;48.118;11.600;2023-09-18T14:19:43;22.60;99.90
1830;DHT22;914;48.118;11.600;2023-09-18T14:22:09;22.80;99.90
1830;DHT22;914;48.118;11.600;2023-09-18T14:24:35;22.90;99.90
1830;DHT22;914;48.118;11.600;2023-09-18T14:27:02;23.10;99.90
1830;DHT22;914;48.118;11.600;2023-09-18T14:29:28;23.10;99.90
1830;DHT22;914;48.118;11.600;2023-09-18T14:31:56;23.10;99.90
1830;DHT22;914;48.118;11.600;2023-09-18T14:34:22;23.10;99.90
1830;DHT22;914;48.118;11.600;2023-09-18T14:36:47;23.20;99.90
1830;DHT22;914;48.118;11.600;2023-09-18T14:39:13;23.00;99.90
1830;DHT22;914;48.118;11.600;2023-09-18T14:41:39;22.90;99.90
1830;DHT22;914;48.118;11.600;2023-09-18T14:44:06;22.80;99.90
1830;DHT22;914;48.118;11.600;2023-09-18T14:46:34;22.80;99.90
1830;DHT22;914;48.118;11.600;2023-09-18T14:49:01;22.80;99.90
1830;DHT22;914;48.118;11.600;2023-09-18T14:51:30;22.50;99.90
1830;DHT22;914;48.118;11.600;2023-09-18T14:53:57;22.40;99.90
1830;DHT22;914;48.118;11.600;2023-09-18T14:56:23;22.40;99.90
1830;DHT22;914;48.118;11.600;2023-09-18T14:58:49;22.50;99.90
1830;DHT22;914;48.118;11.600;2023-09-18T15:01:17;22.40;99.90
1830;DHT22;914;48.118;11.600;2023-09-18T15:03:43;22.40;99.90
1830;DHT22;914;48.118;11.600;2023-09-18T15:06:10;22.30;99.90
1830;DHT22;914;48.118;11.600;2023-09-18T15:08:36;22.20;99.90
1830;DHT22;914;48.118;11.600;2023-09-18T15:11:02;22.20;99.90
1830;DHT22;914;48.118;11.600;2023-09-18T15:13:32;22.20;99.90
1830;DHT22;914;48.118;11.600;2023-09-18T15:15:58;22.10;99.90
1830;DHT22;914;48.118;11.600;2023-09-18T15:18:42;22.00;99.90
1830;DHT22;914;48.118;11.600;2023-09-18T15:21:09;21.90;99.90
1830;DHT22;914;48.118;11.600;2023-09-18T15:23:35;21.90;99.90
1830;DHT22;914;48.118;11.600;2023-09-18T15:26:01;21.70;99.90
1830;DHT22;914;48.118;11.600;2023-09-18T15:28:27;21.70;99.90
1830;DHT22;914;48.118;11.600;2023-09-18T15:30:54;21.60;99.90
1830;DHT22;914;48.118;11.600;2023-09-18T15:33:21;21.50;99.90
1830;DHT22;914;48.118;11.600;2023-09-18T15:35:48;21.50;99.90
1830;DHT22;914;48.118;11.600;2023-09-18T15:38:14;21.60;99.90
1830;DHT22;914;48.118;11.600;2023-09-18T15:40:40;21.50;99.90
1830;DHT22;914;48.118;11.600;2023-09-18T15:43:06;21.60;99.90
1830;DHT22;914;48.118;11.600;2023-09-18T15:45:32;21.60;99.90
1830;DHT22;914;48.118;11.600;2023-09-18T15:48:01;21.60;99.90
1830;DHT22;914;48.118;11.600;2023-09-18T15:50:26;21.50;99.90
1830;DHT22;914;48.118;11.600;2023-09-18T15:52:52;21.30;99.90
1830;DHT22;914;48.118;11.600;2023-09-18T15:55:18;21.30;99.90
1830;DHT22;914;48.118;11.600;2023-09-18T15:57:43;21.40;99.90
1830;DHT22;914;48.118;11.600;2023-09-18T16:00:10;21.30;99.90
1830;DHT22;914;48.118;11.600;2023-09-18T16:02:36;21.30;99.90
1830;DHT22;914;48.118;11.600;2023-09-18T16:05:03;21.10;99.90
1830;DHT22;914;48.118;11.600;2023-09-18T16:07:31;21.10;99.90
1830;DHT22;914;48.118;11.600;2023-09-18T16:09:57;21.10;99.90
1830;DHT22;914;48.118;11.600;2023-09-18T16:12:24;21.00;99.90